sensor_id;sensor_type;location;lat;lon;timestamp;temperature;humidity
68177;DHT22;56478;50.982;7.032;2022-12-15T00:01:00;-3.19;78.75
68177;DHT22;56478;50.982;7.032;2022-12-15T00:03:44;-3.26;79.10
68177;DHT22;56478;50.982;7.032;2022-12-15T00:06:29;-3.27;78.79
68177;DHT22;56478;50.982;7.032;2022-12-15T00:09:13;-3.32;79.06
68177;DHT22;56478;50.982;7.032;2022-12-15T00:11:57;-3.27;79.18
68177;DHT22;56478;50.982;7.032;2022-12-15T00:14:41;-3.26;79.60
68177;DHT22;56478;50.982;7.032;2022-12-15T00:17:25;-3.26;79.41
68177;DHT22;56478;50.982;7.032;2022-12-15T00:20:09;-3.23;78.91
68177;DHT22;56478;50.982;7.032;2022-12-15T00:22:53;-3.30;78.90
68177;DHT22;56478;50.982;7.032;2022-12-15T00:25:37;-3.34;78.99
68177;DHT22;56478;50.982;7.032;2022-12-15T00:28:21;-3.37;78.84
68177;DHT22;56478;50.982;7.032;2022-12-15T00:31:05;-3.42;78.57
68177;DHT22;56478;50.982;7.032;2022-12-15T00:33:49;-3.44;78.84
68177;DHT22;56478;50.982;7.032;2022-12-15T00:36:33;-3.53;78.36
68177;DHT22;56478;50.982;7.032;2022-12-15T00:39:16;-3.64;77.74
68177;DHT22;56478;50.982;7.032;2022-12-15T00:41:42;-3.68;78.05
68177;DHT22;56478;50.982;7.032;2022-12-15T00:44:08;-3.70;77.79
68177;DHT22;56478;50.982;7.032;2022-12-15T00:46:33;-3.68;78.40
68177;DHT22;56478;50.982;7.032;2022-12-15T00:49:17;-3.67;78.45
68177;DHT22;56478;50.982;7.032;2022-12-15T00:52:01;-3.74;77.87
68177;DHT22;56478;50.982;7.032;2022-12-15T00:54:45;-3.70;78.25
68177;DHT22;56478;50.982;7.032;2022-12-15T00:57:29;-3.75;78.36
68177;DHT22;56478;50.982;7.032;2022-12-15T01:00:13;-3.65;78.89
68177;DHT22;56478;50.982;7.032;2022-12-15T01:02:57;-3.61;78.69
68177;DHT22;56478;50.982;7.032;2022-12-15T01:05:41;-3.75;78.34
68177;DHT22;56478;50.982;7.032;2022-12-15T01:08:25;-3.68;78.20
68177;DHT22;56478;50.982;7.032;2022-12-15T01:11:10;-3.68;78.23
68177;DHT22;56478;50.982;7.032;2022-12-15T01:13:54;-3.74;78.19
68177;DHT22;56478;50.982;7.032;2022-12-15T01:16:38;-3.77;78.25
68177;DHT22;56478;50.982;7.032;2022-12-15T01:19:22;-3.70;78.23
68177;DHT22;56478;50.982;7.032;2022-12-15T01:22:06;-3.72;78.42
68177;DHT22;56478;50.982;7.032;2022-12-15T01:24:32;-3.72;78.94
68177;DHT22;56478;50.982;7.032;2022-12-15T01:26:58;-3.78;78.47
68177;DHT22;56478;50.982;7.032;2022-12-15T01:29:24;-3.75;78.21
68177;DHT22;56478;50.982;7.032;2022-12-15T01:31:49;-3.72;78.65
68177;DHT22;56478;50.982;7.032;2022-12-15T01:34:16;-3.70;78.41
68177;DHT22;56478;50.982;7.032;2022-12-15T01:36:41;-3.75;78.26
68177;DHT22;56478;50.982;7.032;2022-12-15T01:39:07;-3.79;77.52
68177;DHT22;56478;50.982;7.032;2022-12-15T01:41:33;-3.82;77.93
68177;DHT22;56478;50.982;7.032;2022-12-15T01:44:19;-3.74;77.94
68177;DHT22;56478;50.982;7.032;2022-12-15T01:46:47;-3.75;78.40
68177;DHT22;56478;50.982;7.032;2022-12-15T01:49:14;-3.68;77.95
68177;DHT22;56478;50.982;7.032;2022-12-15T01:51:47;-3.62;78.10
68177;DHT22;56478;50.982;7.032;2022-12-15T01:54:22;-3.71;77.76
68177;DHT22;56478;50.982;7.032;2022-12-15T01:56:54;-3.74;77.84
68177;DHT22;56478;50.982;7.032;2022-12-15T01:59:23;-3.79;78.23
68177;DHT22;56478;50.982;7.032;2022-12-15T02:01:51;-3.71;78.52
68177;DHT22;56478;50.982;7.032;2022-12-15T02:04:20;-3.71;78.59
68177;DHT22;56478;50.982;7.032;2022-12-15T02:06:46;-3.75;77.95
68177;DHT22;56478;50.982;7.032;2022-12-15T02:09:12;-3.83;78.23
68177;DHT22;56478;50.982;7.032;2022-12-15T02:12:07;-3.93;78.67
68177;DHT22;56478;50.982;7.032;2022-12-15T02:15:07;-3.92;78.95
68177;DHT22;56478;50.982;7.032;2022-12-15T02:17:39;-3.88;78.97
68177;DHT22;56478;50.982;7.032;2022-12-15T02:23:06;-3.88;77.90
68177;DHT22;56478;50.982;7.032;2022-12-15T02:26:06;-3.93;78.77
68177;DHT22;56478;50.982;7.032;2022-12-15T02:31:27;-4.00;78.66
68177;DHT22;56478;50.982;7.032;2022-12-15T02:37:23;-4.06;78.66
68177;DHT22;56478;50.982;7.032;2022-12-15T02:39:50;-4.13;78.93
68177;DHT22;56478;50.982;7.032;2022-12-15T02:42:15;-4.14;79.02
68177;DHT22;56478;50.982;7.032;2022-12-15T02:47:33;-4.09;78.56
68177;DHT22;56478;50.982;7.032;2022-12-15T02:58:30;-4.06;78.83
68177;DHT22;56478;50.982;7.032;2022-12-15T03:01:06;-4.03;78.71
68177;DHT22;56478;50.982;7.032;2022-12-15T03:03:33;-4.17;78.86
68177;DHT22;56478;50.982;7.032;2022-12-15T03:06:00;-4.11;79.05
68177;DHT22;56478;50.982;7.032;2022-12-15T03:08:27;-4.06;78.92
68177;DHT22;56478;50.982;7.032;2022-12-15T03:10:53;-4.03;78.96
68177;DHT22;56478;50.982;7.032;2022-12-15T03:13:19;-4.11;78.81
68177;DHT22;56478;50.982;7.032;2022-12-15T03:15:45;-4.18;79.14
68177;DHT22;56478;50.982;7.032;2022-12-15T03:18:11;-4.23;79.55
68177;DHT22;56478;50.982;7.032;2022-12-15T03:20:36;-4.23;79.42
68177;DHT22;56478;50.982;7.032;2022-12-15T03:23:02;-4.21;79.38
68177;DHT22;56478;50.982;7.032;2022-12-15T03:25:28;-4.24;79.48
68177;DHT22;56478;50.982;7.032;2022-12-15T03:27:53;-4.17;79.25
68177;DHT22;56478;50.982;7.032;2022-12-15T03:30:19;-4.11;79.70
68177;DHT22;56478;50.982;7.032;2022-12-15T03:32:45;-4.16;78.97
68177;DHT22;56478;50.982;7.032;2022-12-15T03:35:11;-4.14;79.08
68177;DHT22;56478;50.982;7.032;2022-12-15T03:37:37;-4.20;79.36
68177;DHT22;56478;50.982;7.032;2022-12-15T03:40:03;-4.23;79.66
68177;DHT22;56478;50.982;7.032;2022-12-15T03:42:29;-4.13;79.58
68177;DHT22;56478;50.982;7.032;2022-12-15T03:45:18;-4.17;79.69
68177;DHT22;56478;50.982;7.032;2022-12-15T03:47:44;-4.20;79.20
68177;DHT22;56478;50.982;7.032;2022-12-15T03:50:12;-4.17;79.43
68177;DHT22;56478;50.982;7.032;2022-12-15T03:52:38;-4.27;79.56
68177;DHT22;56478;50.982;7.032;2022-12-15T03:55:04;-4.21;79.43
68177;DHT22;56478;50.982;7.032;2022-12-15T03:57:30;-4.25;79.64
68177;DHT22;56478;50.982;7.032;2022-12-15T03:59:55;-4.25;79.38
68177;DHT22;56478;50.982;7.032;2022-12-15T04:02:21;-4.23;79.55
68177;DHT22;56478;50.982;7.032;2022-12-15T04:04:46;-4.16;79.85
68177;DHT22;56478;50.982;7.032;2022-12-15T04:07:13;-4.10;79.22
68177;DHT22;56478;50.982;7.032;2022-12-15T04:09:39;-4.07;79.20
68177;DHT22;56478;50.982;7.032;2022-12-15T04:12:04;-4.10;78.77
68177;DHT22;56478;50.982;7.032;2022-12-15T04:14:30;-4.07;79.14
68177;DHT22;56478;50.982;7.032;2022-12-15T04:16:56;-4.05;78.87
68177;DHT22;56478;50.982;7.032;2022-12-15T04:19:22;-4.03;78.85
68177;DHT22;56478;50.982;7.032;2022-12-15T04:22:06;-4.10;79.19
68177;DHT22;56478;50.982;7.032;2022-12-15T04:24:31;-4.14;78.52
68177;DHT22;56478;50.982;7.032;2022-12-15T04:27:16;-4.23;79.01
68177;DHT22;56478;50.982;7.032;2022-12-15T04:30:00;-4.21;79.31
68177;DHT22;56478;50.982;7.032;2022-12-15T04:32:44;-4.20;79.35
68177;DHT22;56478;50.982;7.032;2022-12-15T04:35:30;-4.11;79.61
68177;DHT22;56478;50.982;7.032;2022-12-15T04:38:18;-4.20;79.03
68177;DHT22;56478;50.982;7.032;2022-12-15T04:41:03;-4.25;79.09
68177;DHT22;56478;50.982;7.032;2022-12-15T04:43:47;-4.24;79.11
68177;DHT22;56478;50.982;7.032;2022-12-15T04:46:31;-4.16;78.79
68177;DHT22;56478;50.982;7.032;2022-12-15T04:49:15;-4.13;78.58
68177;DHT22;56478;50.982;7.032;2022-12-15T04:51:59;-4.14;78.37
68177;DHT22;56478;50.982;7.032;2022-12-15T04:54:43;-4.20;78.71
68177;DHT22;56478;50.982;7.032;2022-12-15T04:57:27;-4.18;78.13
68177;DHT22;56478;50.982;7.032;2022-12-15T05:00:11;-4.40;78.03
68177;DHT22;56478;50.982;7.032;2022-12-15T05:02:55;-4.42;78.33
68177;DHT22;56478;50.982;7.032;2022-12-15T05:05:39;-4.44;78.87
68177;DHT22;56478;50.982;7.032;2022-12-15T05:08:23;-4.35;78.77
68177;DHT22;56478;50.982;7.032;2022-12-15T05:11:07;-4.41;78.25
68177;DHT22;56478;50.982;7.032;2022-12-15T05:13:51;-4.37;78.41
68177;DHT22;56478;50.982;7.032;2022-12-15T05:16:35;-4.38;78.75
68177;DHT22;56478;50.982;7.032;2022-12-15T05:19:19;-4.41;78.89
68177;DHT22;56478;50.982;7.032;2022-12-15T05:22:03;-4.37;79.00
68177;DHT22;56478;50.982;7.032;2022-12-15T05:24:47;-4.31;79.17
68177;DHT22;56478;50.982;7.032;2022-12-15T05:27:31;-4.35;78.88
68177;DHT22;56478;50.982;7.032;2022-12-15T05:30:15;-4.35;79.18
68177;DHT22;56478;50.982;7.032;2022-12-15T05:33:03;-4.41;79.12
68177;DHT22;56478;50.982;7.032;2022-12-15T05:35:28;-4.34;78.84
68177;DHT22;56478;50.982;7.032;2022-12-15T05:37:54;-4.41;78.99
68177;DHT22;56478;50.982;7.032;2022-12-15T05:40:19;-4.47;78.71
68177;DHT22;56478;50.982;7.032;2022-12-15T05:42:45;-4.45;78.61
68177;DHT22;56478;50.982;7.032;2022-12-15T05:45:10;-4.45;79.11
68177;DHT22;56478;50.982;7.032;2022-12-15T05:47:36;-4.41;78.78
68177;DHT22;56478;50.982;7.032;2022-12-15T05:50:01;-4.44;78.39
68177;DHT22;56478;50.982;7.032;2022-12-15T05:52:27;-4.42;78.62
68177;DHT22;56478;50.982;7.032;2022-12-15T05:54:52;-4.47;78.55
68177;DHT22;56478;50.982;7.032;2022-12-15T05:57:18;-4.44;78.37
68177;DHT22;56478;50.982;7.032;2022-12-15T05:59:43;-4.51;78.56
68177;DHT22;56478;50.982;7.032;2022-12-15T06:02:09;-4.57;78.14
68177;DHT22;56478;50.982;7.032;2022-12-15T06:04:34;-4.51;78.21
68177;DHT22;56478;50.982;7.032;2022-12-15T06:07:00;-4.55;78.39
68177;DHT22;56478;50.982;7.032;2022-12-15T06:09:25;-4.55;78.36
68177;DHT22;56478;50.982;7.032;2022-12-15T06:11:51;-4.58;77.82
68177;DHT22;56478;50.982;7.032;2022-12-15T06:14:16;-4.52;77.93
68177;DHT22;56478;50.982;7.032;2022-12-15T06:16:42;-4.59;77.52
68177;DHT22;56478;50.982;7.032;2022-12-15T06:19:08;-4.59;77.53
68177;DHT22;56478;50.982;7.032;2022-12-15T06:21:34;-4.68;77.95
68177;DHT22;56478;50.982;7.032;2022-12-15T06:24:01;-4.71;78.41
68177;DHT22;56478;50.982;7.032;2022-12-15T06:26:38;-4.75;78.03
68177;DHT22;56478;50.982;7.032;2022-12-15T06:29:06;-4.79;78.37
68177;DHT22;56478;50.982;7.032;2022-12-15T06:31:33;-4.72;78.03
68177;DHT22;56478;50.982;7.032;2022-12-15T06:34:03;-4.73;78.20
68177;DHT22;56478;50.982;7.032;2022-12-15T06:36:28;-4.69;78.29
68177;DHT22;56478;50.982;7.032;2022-12-15T06:38:57;-4.58;77.71
68177;DHT22;56478;50.982;7.032;2022-12-15T06:41:23;-4.51;77.30
68177;DHT22;56478;50.982;7.032;2022-12-15T06:43:50;-4.44;77.24
68177;DHT22;56478;50.982;7.032;2022-12-15T06:46:16;-4.31;77.11
68177;DHT22;56478;50.982;7.032;2022-12-15T06:48:41;-4.27;76.96
68177;DHT22;56478;50.982;7.032;2022-12-15T06:51:10;-4.13;77.60
68177;DHT22;56478;50.982;7.032;2022-12-15T06:53:37;-4.02;77.01
68177;DHT22;56478;50.982;7.032;2022-12-15T06:56:05;-4.06;76.93
68177;DHT22;56478;50.982;7.032;2022-12-15T06:58:32;-4.00;76.97
68177;DHT22;56478;50.982;7.032;2022-12-15T07:01:04;-3.99;76.91
68177;DHT22;56478;50.982;7.032;2022-12-15T07:03:30;-3.99;77.27
68177;DHT22;56478;50.982;7.032;2022-12-15T07:06:00;-3.98;77.18
68177;DHT22;56478;50.982;7.032;2022-12-15T07:08:27;-3.96;77.33
68177;DHT22;56478;50.982;7.032;2022-12-15T07:10:53;-3.99;77.42
68177;DHT22;56478;50.982;7.032;2022-12-15T07:13:19;-3.90;77.85
68177;DHT22;56478;50.982;7.032;2022-12-15T07:15:44;-3.85;77.80
68177;DHT22;56478;50.982;7.032;2022-12-15T07:18:11;-3.71;77.59
68177;DHT22;56478;50.982;7.032;2022-12-15T07:20:36;-3.71;77.39
68177;DHT22;56478;50.982;7.032;2022-12-15T07:23:02;-3.68;77.67
68177;DHT22;56478;50.982;7.032;2022-12-15T07:25:34;-3.68;77.98
68177;DHT22;56478;50.982;7.032;2022-12-15T07:28:00;-3.62;77.83
68177;DHT22;56478;50.982;7.032;2022-12-15T07:30:26;-3.58;77.82
68177;DHT22;56478;50.982;7.032;2022-12-15T07:32:51;-3.46;78.39
68177;DHT22;56478;50.982;7.032;2022-12-15T07:35:17;-3.39;78.01
68177;DHT22;56478;50.982;7.032;2022-12-15T07:37:43;-3.43;78.60
68177;DHT22;56478;50.982;7.032;2022-12-15T07:40:09;-3.30;79.04
68177;DHT22;56478;50.982;7.032;2022-12-15T07:42:35;-3.21;78.96
68177;DHT22;56478;50.982;7.032;2022-12-15T07:45:01;-3.10;79.07
68177;DHT22;56478;50.982;7.032;2022-12-15T07:47:26;-3.26;79.72
68177;DHT22;56478;50.982;7.032;2022-12-15T07:49:52;-3.15;80.38
68177;DHT22;56478;50.982;7.032;2022-12-15T07:52:19;-2.96;80.45
68177;DHT22;56478;50.982;7.032;2022-12-15T07:54:44;-2.88;80.17
68177;DHT22;56478;50.982;7.032;2022-12-15T07:57:10;-2.73;80.21
68177;DHT22;56478;50.982;7.032;2022-12-15T07:59:35;-2.74;80.48
68177;DHT22;56478;50.982;7.032;2022-12-15T08:02:02;-2.81;81.40
68177;DHT22;56478;50.982;7.032;2022-12-15T08:04:30;-2.67;81.32
68177;DHT22;56478;50.982;7.032;2022-12-15T08:06:56;-2.61;81.16
68177;DHT22;56478;50.982;7.032;2022-12-15T08:09:22;-2.56;81.14
68177;DHT22;56478;50.982;7.032;2022-12-15T08:11:48;-2.52;80.95
68177;DHT22;56478;50.982;7.032;2022-12-15T08:14:15;-2.53;80.92
68177;DHT22;56478;50.982;7.032;2022-12-15T08:16:41;-2.57;81.57
68177;DHT22;56478;50.982;7.032;2022-12-15T08:19:21;-2.61;81.61
68177;DHT22;56478;50.982;7.032;2022-12-15T08:21:47;-2.46;81.04
68177;DHT22;56478;50.982;7.032;2022-12-15T08:24:13;-2.46;80.84
68177;DHT22;56478;50.982;7.032;2022-12-15T08:26:40;-2.43;80.66
68177;DHT22;56478;50.982;7.032;2022-12-15T08:29:07;-2.37;80.93
68177;DHT22;56478;50.982;7.032;2022-12-15T08:31:34;-2.39;80.88
68177;DHT22;56478;50.982;7.032;2022-12-15T08:34:00;-2.61;81.74
68177;DHT22;56478;50.982;7.032;2022-12-15T08:36:27;-2.52;81.58
68177;DHT22;56478;50.982;7.032;2022-12-15T08:38:55;-2.45;81.29
68177;DHT22;56478;50.982;7.032;2022-12-15T08:41:26;-2.46;81.58
68177;DHT22;56478;50.982;7.032;2022-12-15T08:43:53;-2.33;81.05
68177;DHT22;56478;50.982;7.032;2022-12-15T08:46:26;-2.68;81.96
68177;DHT22;56478;50.982;7.032;2022-12-15T08:48:54;-2.61;81.61
68177;DHT22;56478;50.982;7.032;2022-12-15T08:51:22;-2.58;81.86
68177;DHT22;56478;50.982;7.032;2022-12-15T08:53:48;-2.46;81.61
68177;DHT22;56478;50.982;7.032;2022-12-15T08:56:16;-2.32;80.89
68177;DHT22;56478;50.982;7.032;2022-12-15T08:58:43;-2.32;81.12
68177;DHT22;56478;50.982;7.032;2022-12-15T09:01:18;-2.36;80.44
68177;DHT22;56478;50.982;7.032;2022-12-15T09:03:47;-2.52;81.44
68177;DHT22;56478;50.982;7.032;2022-12-15T09:06:16;-2.45;81.05
68177;DHT22;56478;50.982;7.032;2022-12-15T09:08:42;-2.28;80.94
68177;DHT22;56478;50.982;7.032;2022-12-15T09:11:08;-2.13;81.21
68177;DHT22;56478;50.982;7.032;2022-12-15T09:13:34;-2.15;79.63
68177;DHT22;56478;50.982;7.032;2022-12-15T09:16:04;-2.09;79.98
68177;DHT22;56478;50.982;7.032;2022-12-15T09:18:31;-2.22;79.78
68177;DHT22;56478;50.982;7.032;2022-12-15T09:21:02;-2.26;79.60
68177;DHT22;56478;50.982;7.032;2022-12-15T09:23:28;-2.29;80.48
68177;DHT22;56478;50.982;7.032;2022-12-15T09:28:27;-2.37;81.02
68177;DHT22;56478;50.982;7.032;2022-12-15T09:30:53;-2.30;80.74
68177;DHT22;56478;50.982;7.032;2022-12-15T09:33:19;-2.21;80.83
68177;DHT22;56478;50.982;7.032;2022-12-15T09:35:51;-2.26;80.21
68177;DHT22;56478;50.982;7.032;2022-12-15T09:38:16;-2.28;80.68
68177;DHT22;56478;50.982;7.032;2022-12-15T09:40:42;-2.05;80.46
68177;DHT22;56478;50.982;7.032;2022-12-15T09:43:11;-1.99;79.99
68177;DHT22;56478;50.982;7.032;2022-12-15T09:45:44;-2.05;79.88
68177;DHT22;56478;50.982;7.032;2022-12-15T09:48:18;-2.05;80.21
68177;DHT22;56478;50.982;7.032;2022-12-15T09:50:46;-1.93;79.84
68177;DHT22;56478;50.982;7.032;2022-12-15T09:53:15;-2.15;79.99
68177;DHT22;56478;50.982;7.032;2022-12-15T09:55:42;-2.05;79.98
68177;DHT22;56478;50.982;7.032;2022-12-15T10:04:12;-2.15;80.14
68177;DHT22;56478;50.982;7.032;2022-12-15T10:06:47;-2.11;80.50
68177;DHT22;56478;50.982;7.032;2022-12-15T10:09:28;-1.99;80.47
68177;DHT22;56478;50.982;7.032;2022-12-15T10:14:38;-1.80;78.91
68177;DHT22;56478;50.982;7.032;2022-12-15T10:20:11;-1.80;79.51
68177;DHT22;56478;50.982;7.032;2022-12-15T10:22:39;-1.71;78.75
68177;DHT22;56478;50.982;7.032;2022-12-15T10:25:31;-1.85;78.45
68177;DHT22;56478;50.982;7.032;2022-12-15T10:31:33;-1.95;79.34
68177;DHT22;56478;50.982;7.032;2022-12-15T10:34:17;-1.93;79.50
68177;DHT22;56478;50.982;7.032;2022-12-15T10:36:49;-1.85;79.52
68177;DHT22;56478;50.982;7.032;2022-12-15T10:39:15;-1.78;79.07
68177;DHT22;56478;50.982;7.032;2022-12-15T10:41:42;-1.64;79.22
68177;DHT22;56478;50.982;7.032;2022-12-15T10:44:22;-1.48;78.20
68177;DHT22;56478;50.982;7.032;2022-12-15T10:46:54;-1.32;78.20
68177;DHT22;56478;50.982;7.032;2022-12-15T10:49:23;-1.32;77.20
68177;DHT22;56478;50.982;7.032;2022-12-15T10:51:55;-1.25;78.07
68177;DHT22;56478;50.982;7.032;2022-12-15T10:54:22;-1.18;77.13
68177;DHT22;56478;50.982;7.032;2022-12-15T10:56:52;-1.25;76.96
68177;DHT22;56478;50.982;7.032;2022-12-15T10:59:30;-1.18;76.14
68177;DHT22;56478;50.982;7.032;2022-12-15T11:02:31;-1.12;76.26
68177;DHT22;56478;50.982;7.032;2022-12-15T11:04:59;-1.04;75.58
68177;DHT22;56478;50.982;7.032;2022-12-15T11:07:31;-1.24;75.49
68177;DHT22;56478;50.982;7.032;2022-12-15T11:10:11;-1.24;76.26
68177;DHT22;56478;50.982;7.032;2022-12-15T11:12:37;-1.38;76.87
68177;DHT22;56478;50.982;7.032;2022-12-15T11:17:58;-1.46;77.29
68177;DHT22;56478;50.982;7.032;2022-12-15T11:20:42;-1.56;77.11
68177;DHT22;56478;50.982;7.032;2022-12-15T11:23:23;-1.49;77.47
68177;DHT22;56478;50.982;7.032;2022-12-15T11:26:07;-1.45;77.49
68177;DHT22;56478;50.982;7.032;2022-12-15T11:28:44;-1.63;77.71
68177;DHT22;56478;50.982;7.032;2022-12-15T11:31:26;-1.57;77.83
68177;DHT22;56478;50.982;7.032;2022-12-15T11:33:54;-1.60;77.62
68177;DHT22;56478;50.982;7.032;2022-12-15T11:37:04;-1.59;78.34
68177;DHT22;56478;50.982;7.032;2022-12-15T11:39:58;-1.57;78.33
68177;DHT22;56478;50.982;7.032;2022-12-15T11:42:32;-1.49;77.89
68177;DHT22;56478;50.982;7.032;2022-12-15T11:45:12;-1.43;77.60
68177;DHT22;56478;50.982;7.032;2022-12-15T11:56:19;-1.22;77.01
68177;DHT22;56478;50.982;7.032;2022-12-15T12:04:27;-0.72;76.13
68177;DHT22;56478;50.982;7.032;2022-12-15T12:12:42;-0.77;74.47
68177;DHT22;56478;50.982;7.032;2022-12-15T12:15:34;-0.93;75.32
68177;DHT22;56478;50.982;7.032;2022-12-15T12:18:25;-1.05;75.78
68177;DHT22;56478;50.982;7.032;2022-12-15T12:20:57;-1.24;76.89
68177;DHT22;56478;50.982;7.032;2022-12-15T12:26:16;-1.09;76.71
68177;DHT22;56478;50.982;7.032;2022-12-15T12:28:51;-1.08;76.75
68177;DHT22;56478;50.982;7.032;2022-12-15T12:34:04;-0.84;76.26
68177;DHT22;56478;50.982;7.032;2022-12-15T12:36:33;-0.81;76.33
68177;DHT22;56478;50.982;7.032;2022-12-15T12:38:58;-0.77;76.00
68177;DHT22;56478;50.982;7.032;2022-12-15T12:41:48;-0.76;75.97
68177;DHT22;56478;50.982;7.032;2022-12-15T12:44:30;-0.70;75.59
68177;DHT22;56478;50.982;7.032;2022-12-15T12:46:57;-0.86;76.40
68177;DHT22;56478;50.982;7.032;2022-12-15T12:49:40;-0.70;75.90
68177;DHT22;56478;50.982;7.032;2022-12-15T12:52:19;-0.88;75.81
68177;DHT22;56478;50.982;7.032;2022-12-15T12:55:33;-0.84;75.97
68177;DHT22;56478;50.982;7.032;2022-12-15T12:57:42;-0.73;75.74
68177;DHT22;56478;50.982;7.032;2022-12-15T13:05:34;-0.66;75.59
68177;DHT22;56478;50.982;7.032;2022-12-15T13:10:39;-0.56;75.50
68177;DHT22;56478;50.982;7.032;2022-12-15T13:16:01;-0.59;75.54
68177;DHT22;56478;50.982;7.032;2022-12-15T13:18:56;-0.53;75.61
68177;DHT22;56478;50.982;7.032;2022-12-15T13:30:01;-0.48;75.90
68177;DHT22;56478;50.982;7.032;2022-12-15T13:32:39;-0.44;75.57
68177;DHT22;56478;50.982;7.032;2022-12-15T13:45:56;-0.41;75.22
68177;DHT22;56478;50.982;7.032;2022-12-15T13:48:28;-0.53;75.96
68177;DHT22;56478;50.982;7.032;2022-12-15T13:53:37;-0.52;76.24
68177;DHT22;56478;50.982;7.032;2022-12-15T13:58:48;-0.56;76.50
68177;DHT22;56478;50.982;7.032;2022-12-15T14:01:20;-0.51;76.31
68177;DHT22;56478;50.982;7.032;2022-12-15T14:04:10;-0.51;76.50
68177;DHT22;56478;50.982;7.032;2022-12-15T14:06:50;-0.60;76.32
68177;DHT22;56478;50.982;7.032;2022-12-15T14:09:21;-0.55;76.39
68177;DHT22;56478;50.982;7.032;2022-12-15T14:11:48;-0.56;76.49
68177;DHT22;56478;50.982;7.032;2022-12-15T14:14:20;-0.55;76.42
68177;DHT22;56478;50.982;7.032;2022-12-15T14:16:51;-0.56;76.30
68177;DHT22;56478;50.982;7.032;2022-12-15T14:19:17;-0.58;76.49
68177;DHT22;56478;50.982;7.032;2022-12-15T14:24:22;-0.46;76.74
68177;DHT22;56478;50.982;7.032;2022-12-15T14:26:48;-0.39;76.24
68177;DHT22;56478;50.982;7.032;2022-12-15T14:29:14;-0.41;76.25
68177;DHT22;56478;50.982;7.032;2022-12-15T14:32:02;-0.46;76.30
68177;DHT22;56478;50.982;7.032;2022-12-15T14:34:38;-0.49;76.47
68177;DHT22;56478;50.982;7.032;2022-12-15T14:37:09;-0.52;76.73
68177;DHT22;56478;50.982;7.032;2022-12-15T14:39:44;-0.63;76.97
68177;DHT22;56478;50.982;7.032;2022-12-15T14:42:30;-0.68;77.70
68177;DHT22;56478;50.982;7.032;2022-12-15T14:44:56;-0.58;77.36
68177;DHT22;56478;50.982;7.032;2022-12-15T14:47:25;-0.66;77.61
68177;DHT22;56478;50.982;7.032;2022-12-15T14:49:53;-0.70;77.89
68177;DHT22;56478;50.982;7.032;2022-12-15T14:52:34;-0.69;77.86
68177;DHT22;56478;50.982;7.032;2022-12-15T14:55:29;-0.77;77.69
68177;DHT22;56478;50.982;7.032;2022-12-15T14:57:54;-0.79;77.77
68177;DHT22;56478;50.982;7.032;2022-12-15T15:00:35;-0.86;78.38
68177;DHT22;56478;50.982;7.032;2022-12-15T15:05:41;-0.84;78.49
68177;DHT22;56478;50.982;7.032;2022-12-15T15:08:14;-0.83;78.41
68177;DHT22;56478;50.982;7.032;2022-12-15T15:10:40;-0.88;78.63
68177;DHT22;56478;50.982;7.032;2022-12-15T15:13:17;-0.94;78.68
68177;DHT22;56478;50.982;7.032;2022-12-15T15:15:53;-0.91;78.71
68177;DHT22;56478;50.982;7.032;2022-12-15T15:18:25;-0.96;78.95
68177;DHT22;56478;50.982;7.032;2022-12-15T15:21:01;-0.97;78.56
68177;DHT22;56478;50.982;7.032;2022-12-15T15:23:29;-1.05;78.94
68177;DHT22;56478;50.982;7.032;2022-12-15T15:28:40;-1.14;79.19
68177;DHT22;56478;50.982;7.032;2022-12-15T15:31:25;-1.19;79.33
68177;DHT22;56478;50.982;7.032;2022-12-15T15:33:53;-1.25;79.47
68177;DHT22;56478;50.982;7.032;2022-12-15T15:36:31;-1.28;79.33
68177;DHT22;56478;50.982;7.032;2022-12-15T15:38:58;-1.27;79.52
68177;DHT22;56478;50.982;7.032;2022-12-15T15:41:29;-1.30;79.69
68177;DHT22;56478;50.982;7.032;2022-12-15T15:43:57;-1.43;79.75
68177;DHT22;56478;50.982;7.032;2022-12-15T15:46:30;-1.40;79.67
68177;DHT22;56478;50.982;7.032;2022-12-15T15:49:06;-1.42;79.90
68177;DHT22;56478;50.982;7.032;2022-12-15T15:51:33;-1.42;79.84
68177;DHT22;56478;50.982;7.032;2022-12-15T15:54:01;-1.43;79.60
68177;DHT22;56478;50.982;7.032;2022-12-15T15:56:27;-1.42;79.62
68177;DHT22;56478;50.982;7.032;2022-12-15T15:58:55;-1.46;79.64
68177;DHT22;56478;50.982;7.032;2022-12-15T16:01:21;-1.45;79.50
68177;DHT22;56478;50.982;7.032;2022-12-15T16:03:47;-1.48;79.74
68177;DHT22;56478;50.982;7.032;2022-12-15T16:06:19;-1.52;80.06
68177;DHT22;56478;50.982;7.032;2022-12-15T16:08:50;-1.52;79.79
68177;DHT22;56478;50.982;7.032;2022-12-15T16:11:16;-1.49;80.24
68177;DHT22;56478;50.982;7.032;2022-12-15T16:13:42;-1.45;79.75
68177;DHT22;56478;50.982;7.032;2022-12-15T16:16:30;-1.48;79.71
68177;DHT22;56478;50.982;7.032;2022-12-15T16:18:56;-1.45;79.72
68177;DHT22;56478;50.982;7.032;2022-12-15T16:21:25;-1.49;79.31
68177;DHT22;56478;50.982;7.032;2022-12-15T16:23:51;-1.46;79.15
68177;DHT22;56478;50.982;7.032;2022-12-15T16:26:30;-1.63;79.75
68177;DHT22;56478;50.982;7.032;2022-12-15T16:28:56;-1.56;79.88
68177;DHT22;56478;50.982;7.032;2022-12-15T16:31:30;-1.57;79.93
68177;DHT22;56478;50.982;7.032;2022-12-15T16:33:56;-1.60;79.25
68177;DHT22;56478;50.982;7.032;2022-12-15T16:36:22;-1.62;79.83
68177;DHT22;56478;50.982;7.032;2022-12-15T16:38:50;-1.64;79.69
68177;DHT22;56478;50.982;7.032;2022-12-15T16:41:17;-1.71;79.85
68177;DHT22;56478;50.982;7.032;2022-12-15T16:43:43;-1.77;79.97
68177;DHT22;56478;50.982;7.032;2022-12-15T16:46:11;-1.80;80.21
68177;DHT22;56478;50.982;7.032;2022-12-15T16:48:38;-1.90;80.19
68177;DHT22;56478;50.982;7.032;2022-12-15T16:51:06;-1.94;80.36
68177;DHT22;56478;50.982;7.032;2022-12-15T16:53:37;-1.97;80.31
68177;DHT22;56478;50.982;7.032;2022-12-15T16:56:07;-2.01;80.56
68177;DHT22;56478;50.982;7.032;2022-12-15T16:58:37;-2.05;80.33
68177;DHT22;56478;50.982;7.032;2022-12-15T17:01:03;-2.09;80.17
68177;DHT22;56478;50.982;7.032;2022-12-15T17:03:28;-2.09;80.62
68177;DHT22;56478;50.982;7.032;2022-12-15T17:05:57;-2.13;81.02
68177;DHT22;56478;50.982;7.032;2022-12-15T17:08:32;-2.15;80.95
68177;DHT22;56478;50.982;7.032;2022-12-15T17:10:59;-2.21;80.73
68177;DHT22;56478;50.982;7.032;2022-12-15T17:13:35;-2.22;81.11
68177;DHT22;56478;50.982;7.032;2022-12-15T17:16:02;-2.33;81.15
68177;DHT22;56478;50.982;7.032;2022-12-15T17:18:28;-2.25;81.44
68177;DHT22;56478;50.982;7.032;2022-12-15T17:21:03;-2.32;81.14
68177;DHT22;56478;50.982;7.032;2022-12-15T17:23:29;-2.33;81.16
68177;DHT22;56478;50.982;7.032;2022-12-15T17:25:55;-2.39;80.98
68177;DHT22;56478;50.982;7.032;2022-12-15T17:28:26;-2.45;81.34
68177;DHT22;56478;50.982;7.032;2022-12-15T17:30:52;-2.52;81.47
68177;DHT22;56478;50.982;7.032;2022-12-15T17:33:20;-2.43;81.46
68177;DHT22;56478;50.982;7.032;2022-12-15T17:35:48;-2.39;81.36
68177;DHT22;56478;50.982;7.032;2022-12-15T17:38:16;-2.49;81.08
68177;DHT22;56478;50.982;7.032;2022-12-15T17:40:43;-2.42;81.17
68177;DHT22;56478;50.982;7.032;2022-12-15T17:43:16;-2.45;81.14
68177;DHT22;56478;50.982;7.032;2022-12-15T17:45:43;-2.47;81.09
68177;DHT22;56478;50.982;7.032;2022-12-15T17:48:10;-2.47;80.73
68177;DHT22;56478;50.982;7.032;2022-12-15T17:50:36;-2.53;80.91